sensor_id;sensor_type;location;lat;lon;timestamp;P1;durP1;ratioP1;P2;durP2;ratioP2
1376;SDS011;682;52.502;13.488;2024-02-28T00:00:11;22.30;;;14.83;;
1376;SDS011;682;52.502;13.488;2024-02-28T00:02:41;21.38;;;14.65;;
1376;SDS011;682;52.502;13.488;2024-02-28T00:05:09;18.93;;;14.87;;
1376;SDS011;682;52.502;13.488;2024-02-28T00:07:36;20.37;;;14.57;;
1376;SDS011;682;52.502;13.488;2024-02-28T00:10:03;19.80;;;13.77;;
1376;SDS011;682;52.502;13.488;2024-02-28T00:12:30;15.53;;;13.50;;
1376;SDS011;682;52.502;13.488;2024-02-28T00:14:57;21.63;;;14.50;;
1376;SDS011;682;52.502;13.488;2024-02-28T00:17:24;20.75;;;14.98;;
1376;SDS011;682;52.502;13.488;2024-02-28T00:19:52;21.37;;;13.43;;
1376;SDS011;682;52.502;13.488;2024-02-28T00:22:19;18.90;;;13.50;;
1376;SDS011;682;52.502;13.488;2024-02-28T00:24:46;21.52;;;13.93;;
1376;SDS011;682;52.502;13.488;2024-02-28T00:27:13;21.20;;;13.57;;
1376;SDS011;682;52.502;13.488;2024-02-28T00:29:40;17.58;;;12.40;;
1376;SDS011;682;52.502;13.488;2024-02-28T00:32:07;19.33;;;13.48;;
1376;SDS011;682;52.502;13.488;2024-02-28T00:34:34;18.63;;;13.77;;
1376;SDS011;682;52.502;13.488;2024-02-28T00:37:02;20.77;;;13.52;;
1376;SDS011;682;52.502;13.488;2024-02-28T00:39:30;19.80;;;14.55;;
1376;SDS011;682;52.502;13.488;2024-02-28T00:41:57;18.98;;;14.35;;
1376;SDS011;682;52.502;13.488;2024-02-28T00:44:24;20.40;;;14.55;;
1376;SDS011;682;52.502;13.488;2024-02-28T00:46:50;20.00;;;13.10;;
1376;SDS011;682;52.502;13.488;2024-02-28T00:49:17;19.35;;;14.27;;
1376;SDS011;682;52.502;13.488;2024-02-28T00:51:45;21.30;;;13.40;;
1376;SDS011;682;52.502;13.488;2024-02-28T00:54:14;19.23;;;13.70;;
1376;SDS011;682;52.502;13.488;2024-02-28T00:56:41;18.10;;;12.60;;
1376;SDS011;682;52.502;13.488;2024-02-28T00:59:08;21.40;;;13.13;;
1376;SDS011;682;52.502;13.488;2024-02-28T01:01:36;16.35;;;12.65;;
1376;SDS011;682;52.502;13.488;2024-02-28T01:04:03;20.17;;;14.80;;
1376;SDS011;682;52.502;13.488;2024-02-28T01:06:30;19.83;;;14.98;;
1376;SDS011;682;52.502;13.488;2024-02-28T01:08:56;18.13;;;13.13;;
1376;SDS011;682;52.502;13.488;2024-02-28T01:11:25;20.42;;;13.88;;
1376;SDS011;682;52.502;13.488;2024-02-28T01:13:52;18.52;;;14.13;;
1376;SDS011;682;52.502;13.488;2024-02-28T01:16:19;20.40;;;13.15;;
1376;SDS011;682;52.502;13.488;2024-02-28T01:18:46;18.63;;;12.77;;
1376;SDS011;682;52.502;13.488;2024-02-28T01:21:13;19.08;;;12.55;;
1376;SDS011;682;52.502;13.488;2024-02-28T01:23:40;23.38;;;15.27;;
1376;SDS011;682;52.502;13.488;2024-02-28T01:26:07;19.27;;;12.63;;
1376;SDS011;682;52.502;13.488;2024-02-28T01:28:35;18.92;;;13.38;;
1376;SDS011;682;52.502;13.488;2024-02-28T01:31:02;19.00;;;12.88;;
1376;SDS011;682;52.502;13.488;2024-02-28T01:33:30;20.23;;;14.13;;
1376;SDS011;682;52.502;13.488;2024-02-28T01:35:57;18.48;;;13.02;;
1376;SDS011;682;52.502;13.488;2024-02-28T01:38:25;23.05;;;13.68;;
1376;SDS011;682;52.502;13.488;2024-02-28T01:40:52;18.65;;;12.75;;
1376;SDS011;682;52.502;13.488;2024-02-28T01:43:19;20.20;;;12.68;;
1376;SDS011;682;52.502;13.488;2024-02-28T01:45:48;18.58;;;13.57;;
1376;SDS011;682;52.502;13.488;2024-02-28T01:48:16;21.73;;;13.05;;
1376;SDS011;682;52.502;13.488;2024-02-28T01:50:43;19.70;;;13.38;;
1376;SDS011;682;52.502;13.488;2024-02-28T01:53:11;17.23;;;13.05;;
1376;SDS011;682;52.502;13.488;2024-02-28T01:55:38;20.67;;;13.57;;
1376;SDS011;682;52.502;13.488;2024-02-28T01:58:06;18.45;;;13.02;;
1376;SDS011;682;52.502;13.488;2024-02-28T02:00:33;15.07;;;11.68;;
1376;SDS011;682;52.502;13.488;2024-02-28T02:03:02;21.25;;;12.77;;
1376;SDS011;682;52.502;13.488;2024-02-28T02:05:29;18.13;;;13.20;;
1376;SDS011;682;52.502;13.488;2024-02-28T02:07:56;17.23;;;11.70;;
1376;SDS011;682;52.502;13.488;2024-02-28T02:10:25;17.38;;;12.98;;
1376;SDS011;682;52.502;13.488;2024-02-28T02:12:52;17.48;;;11.85;;
1376;SDS011;682;52.502;13.488;2024-02-28T02:15:19;16.10;;;12.53;;
1376;SDS011;682;52.502;13.488;2024-02-28T02:17:46;16.43;;;11.37;;
1376;SDS011;682;52.502;13.488;2024-02-28T02:20:15;14.17;;;10.73;;
1376;SDS011;682;52.502;13.488;2024-02-28T02:22:46;13.70;;;10.00;;
1376;SDS011;682;52.502;13.488;2024-02-28T02:25:13;15.00;;;10.73;;
1376;SDS011;682;52.502;13.488;2024-02-28T02:27:40;17.80;;;11.30;;
1376;SDS011;682;52.502;13.488;2024-02-28T02:30:08;15.10;;;10.03;;
1376;SDS011;682;52.502;13.488;2024-02-28T02:32:35;14.05;;;10.60;;
1376;SDS011;682;52.502;13.488;2024-02-28T02:35:03;16.13;;;11.70;;
1376;SDS011;682;52.502;13.488;2024-02-28T02:37:30;15.88;;;10.90;;
1376;SDS011;682;52.502;13.488;2024-02-28T02:39:58;14.15;;;11.35;;
1376;SDS011;682;52.502;13.488;2024-02-28T02:42:26;15.40;;;10.15;;
1376;SDS011;682;52.502;13.488;2024-02-28T02:44:53;13.37;;;9.17;;
1376;SDS011;682;52.502;13.488;2024-02-28T02:47:19;11.45;;;8.82;;
1376;SDS011;682;52.502;13.488;2024-02-28T02:49:46;13.40;;;9.10;;
1376;SDS011;682;52.502;13.488;2024-02-28T02:52:13;15.75;;;9.70;;
1376;SDS011;682;52.502;13.488;2024-02-28T02:54:40;16.23;;;8.98;;
1376;SDS011;682;52.502;13.488;2024-02-28T02:57:08;12.27;;;9.60;;
1376;SDS011;682;52.502;13.488;2024-02-28T02:59:35;15.27;;;10.98;;
1376;SDS011;682;52.502;13.488;2024-02-28T03:02:02;13.45;;;10.32;;
1376;SDS011;682;52.502;13.488;2024-02-28T03:04:29;11.18;;;9.48;;
1376;SDS011;682;52.502;13.488;2024-02-28T03:06:56;13.02;;;9.30;;
1376;SDS011;682;52.502;13.488;2024-02-28T03:09:23;11.57;;;9.32;;
1376;SDS011;682;52.502;13.488;2024-02-28T03:11:50;12.90;;;9.63;;
1376;SDS011;682;52.502;13.488;2024-02-28T03:14:19;12.18;;;8.88;;
1376;SDS011;682;52.502;13.488;2024-02-28T03:16:47;13.75;;;8.18;;
1376;SDS011;682;52.502;13.488;2024-02-28T03:19:14;13.82;;;9.07;;
1376;SDS011;682;52.502;13.488;2024-02-28T03:21:41;12.80;;;8.80;;
1376;SDS011;682;52.502;13.488;2024-02-28T03:24:08;13.00;;;9.27;;
1376;SDS011;682;52.502;13.488;2024-02-28T03:26:35;12.25;;;8.73;;
1376;SDS011;682;52.502;13.488;2024-02-28T03:29:02;11.23;;;8.27;;
1376;SDS011;682;52.502;13.488;2024-02-28T03:31:30;11.10;;;8.45;;
1376;SDS011;682;52.502;13.488;2024-02-28T03:33:57;11.30;;;8.10;;
1376;SDS011;682;52.502;13.488;2024-02-28T03:36:24;10.07;;;7.70;;
1376;SDS011;682;52.502;13.488;2024-02-28T03:38:51;10.85;;;8.27;;
1376;SDS011;682;52.502;13.488;2024-02-28T03:41:18;10.98;;;7.80;;
1376;SDS011;682;52.502;13.488;2024-02-28T03:43:52;11.82;;;7.60;;
1376;SDS011;682;52.502;13.488;2024-02-28T03:46:19;9.82;;;8.50;;
1376;SDS011;682;52.502;13.488;2024-02-28T03:48:48;12.55;;;8.05;;
1376;SDS011;682;52.502;13.488;2024-02-28T03:51:15;9.43;;;7.35;;
1376;SDS011;682;52.502;13.488;2024-02-28T03:53:42;10.15;;;7.57;;
1376;SDS011;682;52.502;13.488;2024-02-28T03:56:09;9.20;;;7.35;;
1376;SDS011;682;52.502;13.488;2024-02-28T03:58:36;8.45;;;6.90;;
1376;SDS011;682;52.502;13.488;2024-02-28T04:01:03;10.60;;;7.68;;
1376;SDS011;682;52.502;13.488;2024-02-28T04:03:30;10.55;;;7.60;;
1376;SDS011;682;52.502;13.488;2024-02-28T04:05:59;10.80;;;7.60;;
1376;SDS011;682;52.502;13.488;2024-02-28T04:08:26;11.88;;;7.40;;
1376;SDS011;682;52.502;13.488;2024-02-28T04:10:53;9.00;;;6.35;;
1376;SDS011;682;52.502;13.488;2024-02-28T04:13:20;10.93;;;7.03;;
1376;SDS011;682;52.502;13.488;2024-02-28T04:15:47;8.70;;;6.53;;
1376;SDS011;682;52.502;13.488;2024-02-28T04:18:14;10.63;;;6.70;;
1376;SDS011;682;52.502;13.488;2024-02-28T04:20:41;11.68;;;8.20;;
1376;SDS011;682;52.502;13.488;2024-02-28T04:23:09;10.52;;;7.97;;
1376;SDS011;682;52.502;13.488;2024-02-28T04:25:36;10.05;;;6.85;;
1376;SDS011;682;52.502;13.488;2024-02-28T04:28:05;10.70;;;7.00;;
1376;SDS011;682;52.502;13.488;2024-02-28T04:30:33;11.00;;;6.78;;
1376;SDS011;682;52.502;13.488;2024-02-28T04:33:01;8.55;;;6.53;;
1376;SDS011;682;52.502;13.488;2024-02-28T04:35:27;13.55;;;7.60;;
1376;SDS011;682;52.502;13.488;2024-02-28T04:37:54;9.73;;;6.47;;
1376;SDS011;682;52.502;13.488;2024-02-28T04:40:23;7.63;;;6.30;;
1376;SDS011;682;52.502;13.488;2024-02-28T04:42:50;11.25;;;6.80;;
1376;SDS011;682;52.502;13.488;2024-02-28T04:45:17;7.90;;;5.18;;
1376;SDS011;682;52.502;13.488;2024-02-28T04:47:44;9.18;;;6.20;;
1376;SDS011;682;52.502;13.488;2024-02-28T04:50:11;13.98;;;7.00;;
1376;SDS011;682;52.502;13.488;2024-02-28T04:52:40;5.80;;;4.45;;
1376;SDS011;682;52.502;13.488;2024-02-28T04:55:07;9.50;;;7.00;;
1376;SDS011;682;52.502;13.488;2024-02-28T04:57:36;8.43;;;5.35;;
1376;SDS011;682;52.502;13.488;2024-02-28T05:00:04;7.95;;;4.70;;
1376;SDS011;682;52.502;13.488;2024-02-28T05:02:33;9.93;;;6.32;;
1376;SDS011;682;52.502;13.488;2024-02-28T05:05:00;9.13;;;6.78;;
1376;SDS011;682;52.502;13.488;2024-02-28T05:07:26;6.07;;;4.60;;
1376;SDS011;682;52.502;13.488;2024-02-28T05:09:53;8.68;;;5.28;;
1376;SDS011;682;52.502;13.488;2024-02-28T05:12:20;7.07;;;5.40;;
1376;SDS011;682;52.502;13.488;2024-02-28T05:14:51;8.57;;;5.50;;
1376;SDS011;682;52.502;13.488;2024-02-28T05:17:18;7.22;;;5.20;;
1376;SDS011;682;52.502;13.488;2024-02-28T05:19:46;14.18;;;7.05;;
1376;SDS011;682;52.502;13.488;2024-02-28T05:22:14;8.55;;;5.68;;
1376;SDS011;682;52.502;13.488;2024-02-28T05:24:41;7.30;;;5.20;;
1376;SDS011;682;52.502;13.488;2024-02-28T05:27:08;8.00;;;5.95;;
1376;SDS011;682;52.502;13.488;2024-02-28T05:29:35;6.10;;;5.10;;
1376;SDS011;682;52.502;13.488;2024-02-28T05:32:04;7.30;;;6.60;;
1376;SDS011;682;52.502;13.488;2024-02-28T05:34:31;10.85;;;7.45;;
1376;SDS011;682;52.502;13.488;2024-02-28T05:36:58;9.88;;;7.43;;
1376;SDS011;682;52.502;13.488;2024-02-28T05:39:26;9.68;;;7.53;;
1376;SDS011;682;52.502;13.488;2024-02-28T05:41:54;22.42;;;13.10;;
1376;SDS011;682;52.502;13.488;2024-02-28T05:44:22;12.13;;;9.25;;
1376;SDS011;682;52.502;13.488;2024-02-28T05:46:49;8.05;;;6.90;;
1376;SDS011;682;52.502;13.488;2024-02-28T05:49:17;8.93;;;6.60;;
1376;SDS011;682;52.502;13.488;2024-02-28T05:51:44;13.00;;;7.50;;
1376;SDS011;682;52.502;13.488;2024-02-28T05:54:12;11.93;;;7.22;;
1376;SDS011;682;52.502;13.488;2024-02-28T05:56:39;11.48;;;7.53;;
1376;SDS011;682;52.502;13.488;2024-02-28T05:59:06;9.52;;;7.35;;
1376;SDS011;682;52.502;13.488;2024-02-28T06:01:33;9.40;;;7.40;;
1376;SDS011;682;52.502;13.488;2024-02-28T06:04:00;11.05;;;7.05;;
1376;SDS011;682;52.502;13.488;2024-02-28T06:06:29;13.48;;;8.77;;
1376;SDS011;682;52.502;13.488;2024-02-28T06:08:57;7.97;;;6.60;;
1376;SDS011;682;52.502;13.488;2024-02-28T06:11:24;9.75;;;5.80;;
1376;SDS011;682;52.502;13.488;2024-02-28T06:13:51;21.77;;;11.80;;
1376;SDS011;682;52.502;13.488;2024-02-28T06:16:21;13.25;;;6.70;;
1376;SDS011;682;52.502;13.488;2024-02-28T06:18:49;15.13;;;7.38;;
1376;SDS011;682;52.502;13.488;2024-02-28T06:21:16;8.20;;;6.95;;
1376;SDS011;682;52.502;13.488;2024-02-28T06:23:44;11.43;;;8.20;;
1376;SDS011;682;52.502;13.488;2024-02-28T06:26:10;10.43;;;7.05;;
1376;SDS011;682;52.502;13.488;2024-02-28T06:28:42;12.25;;;8.90;;
1376;SDS011;682;52.502;13.488;2024-02-28T06:31:14;13.40;;;7.80;;
1376;SDS011;682;52.502;13.488;2024-02-28T06:33:42;12.15;;;7.82;;
1376;SDS011;682;52.502;13.488;2024-02-28T06:36:09;10.02;;;6.63;;
1376;SDS011;682;52.502;13.488;2024-02-28T06:38:36;9.75;;;5.65;;
1376;SDS011;682;52.502;13.488;2024-02-28T06:41:05;9.85;;;7.30;;
1376;SDS011;682;52.502;13.488;2024-02-28T06:43:33;15.40;;;7.85;;
1376;SDS011;682;52.502;13.488;2024-02-28T06:46:00;11.73;;;7.47;;
1376;SDS011;682;52.502;13.488;2024-02-28T06:48:27;15.05;;;8.40;;
1376;SDS011;682;52.502;13.488;2024-02-28T06:50:55;11.25;;;8.20;;
1376;SDS011;682;52.502;13.488;2024-02-28T06:53:25;12.10;;;8.70;;
1376;SDS011;682;52.502;13.488;2024-02-28T06:55:52;9.60;;;7.90;;
1376;SDS011;682;52.502;13.488;2024-02-28T06:58:21;9.68;;;7.57;;
1376;SDS011;682;52.502;13.488;2024-02-28T07:00:49;12.55;;;9.40;;
1376;SDS011;682;52.502;13.488;2024-02-28T07:03:17;20.48;;;11.65;;
1376;SDS011;682;52.502;13.488;2024-02-28T07:05:44;11.70;;;9.23;;
1376;SDS011;682;52.502;13.488;2024-02-28T07:08:11;12.98;;;9.98;;
1376;SDS011;682;52.502;13.488;2024-02-28T07:10:38;21.55;;;14.77;;
1376;SDS011;682;52.502;13.488;2024-02-28T07:13:08;22.30;;;12.85;;
1376;SDS011;682;52.502;13.488;2024-02-28T07:15:37;14.73;;;10.32;;
1376;SDS011;682;52.502;13.488;2024-02-28T07:18:05;13.13;;;11.00;;
1376;SDS011;682;52.502;13.488;2024-02-28T07:20:34;16.95;;;10.68;;
1376;SDS011;682;52.502;13.488;2024-02-28T07:23:04;22.00;;;14.55;;
1376;SDS011;682;52.502;13.488;2024-02-28T07:25:31;19.05;;;14.15;;
1376;SDS011;682;52.502;13.488;2024-02-28T07:27:58;19.77;;;13.50;;
1376;SDS011;682;52.502;13.488;2024-02-28T07:30:26;25.80;;;15.27;;
1376;SDS011;682;52.502;13.488;2024-02-28T07:32:54;22.05;;;13.75;;
1376;SDS011;682;52.502;13.488;2024-02-28T07:35:23;19.20;;;14.32;;
1376;SDS011;682;52.502;13.488;2024-02-28T07:37:50;17.35;;;14.02;;
1376;SDS011;682;52.502;13.488;2024-02-28T07:40:17;20.30;;;13.40;;
1376;SDS011;682;52.502;13.488;2024-02-28T07:42:44;18.42;;;13.20;;
1376;SDS011;682;52.502;13.488;2024-02-28T07:45:13;15.15;;;12.20;;
1376;SDS011;682;52.502;13.488;2024-02-28T07:47:40;23.88;;;14.32;;
1376;SDS011;682;52.502;13.488;2024-02-28T07:50:09;18.23;;;13.45;;
1376;SDS011;682;52.502;13.488;2024-02-28T07:52:36;20.35;;;12.73;;
1376;SDS011;682;52.502;13.488;2024-02-28T07:55:03;19.05;;;13.75;;
1376;SDS011;682;52.502;13.488;2024-02-28T07:57:31;21.65;;;13.50;;
1376;SDS011;682;52.502;13.488;2024-02-28T07:59:59;14.10;;;12.60;;
1376;SDS011;682;52.502;13.488;2024-02-28T08:02:26;19.52;;;12.57;;
1376;SDS011;682;52.502;13.488;2024-02-28T08:04:53;35.63;;;12.85;;
1376;SDS011;682;52.502;13.488;2024-02-28T08:07:21;17.80;;;14.93;;
1376;SDS011;682;52.502;13.488;2024-02-28T08:09:49;14.65;;;12.93;;
1376;SDS011;682;52.502;13.488;2024-02-28T08:12:18;19.92;;;14.07;;
1376;SDS011;682;52.502;13.488;2024-02-28T08:14:45;21.77;;;14.32;;
1376;SDS011;682;52.502;13.488;2024-02-28T08:17:13;14.98;;;10.95;;
1376;SDS011;682;52.502;13.488;2024-02-28T08:19:41;14.57;;;10.70;;
1376;SDS011;682;52.502;13.488;2024-02-28T08:22:08;11.15;;;9.45;;
1376;SDS011;682;52.502;13.488;2024-02-28T08:24:37;21.85;;;10.27;;
1376;SDS011;682;52.502;13.488;2024-02-28T08:27:04;13.32;;;8.88;;
1376;SDS011;682;52.502;13.488;2024-02-28T08:29:31;10.95;;;8.70;;
1376;SDS011;682;52.502;13.488;2024-02-28T08:32:00;19.02;;;9.75;;
1376;SDS011;682;52.502;13.488;2024-02-28T08:34:28;14.20;;;11.30;;
1376;SDS011;682;52.502;13.488;2024-02-28T08:36:55;14.73;;;12.30;;
1376;SDS011;682;52.502;13.488;2024-02-28T08:39:21;17.88;;;12.90;;
1376;SDS011;682;52.502;13.488;2024-02-28T08:41:51;20.88;;;13.40;;
1376;SDS011;682;52.502;13.488;2024-02-28T08:44:18;15.25;;;11.73;;
1376;SDS011;682;52.502;13.488;2024-02-28T08:46:46;20.05;;;13.13;;
1376;SDS011;682;52.502;13.488;2024-02-28T08:49:13;14.35;;;11.73;;
1376;SDS011;682;52.502;13.488;2024-02-28T08:51:40;40.00;;;15.80;;
1376;SDS011;682;52.502;13.488;2024-02-28T08:54:07;21.88;;;15.65;;
1376;SDS011;682;52.502;13.488;2024-02-28T08:56:34;19.30;;;13.52;;
1376;SDS011;682;52.502;13.488;2024-02-28T08:59:02;14.00;;;12.30;;
1376;SDS011;682;52.502;13.488;2024-02-28T09:01:30;17.60;;;12.50;;
1376;SDS011;682;52.502;13.488;2024-02-28T09:03:59;13.98;;;10.35;;
1376;SDS011;682;52.502;13.488;2024-02-28T09:06:26;13.60;;;10.98;;
1376;SDS011;682;52.502;13.488;2024-02-28T09:08:53;13.32;;;9.50;;
1376;SDS011;682;52.502;13.488;2024-02-28T09:11:20;13.23;;;10.93;;
1376;SDS011;682;52.502;13.488;2024-02-28T09:13:47;13.15;;;9.80;;
1376;SDS011;682;52.502;13.488;2024-02-28T09:16:15;14.93;;;11.40;;
1376;SDS011;682;52.502;13.488;2024-02-28T09:18:42;23.08;;;15.52;;
1376;SDS011;682;52.502;13.488;2024-02-28T09:21:09;16.50;;;12.35;;
1376;SDS011;682;52.502;13.488;2024-02-28T09:23:36;20.70;;;12.85;;
1376;SDS011;682;52.502;13.488;2024-02-28T09:26:03;17.23;;;13.02;;
1376;SDS011;682;52.502;13.488;2024-02-28T09:28:30;15.07;;;12.40;;
1376;SDS011;682;52.502;13.488;2024-02-28T09:30:57;15.68;;;12.95;;
1376;SDS011;682;52.502;13.488;2024-02-28T09:33:27;19.45;;;13.52;;
1376;SDS011;682;52.502;13.488;2024-02-28T09:35:54;16.35;;;13.20;;
1376;SDS011;682;52.502;13.488;2024-02-28T09:38:21;16.65;;;13.48;;
1376;SDS011;682;52.502;13.488;2024-02-28T09:40:48;21.70;;;14.40;;
1376;SDS011;682;52.502;13.488;2024-02-28T09:43:19;22.75;;;15.10;;
1376;SDS011;682;52.502;13.488;2024-02-28T09:45:54;18.05;;;14.30;;
1376;SDS011;682;52.502;13.488;2024-02-28T09:48:27;24.35;;;15.10;;
1376;SDS011;682;52.502;13.488;2024-02-28T09:50:55;16.38;;;13.90;;
1376;SDS011;682;52.502;13.488;2024-02-28T09:53:23;21.60;;;14.30;;
1376;SDS011;682;52.502;13.488;2024-02-28T09:55:50;18.67;;;14.95;;
1376;SDS011;682;52.502;13.488;2024-02-28T09:58:18;20.88;;;16.15;;
1376;SDS011;682;52.502;13.488;2024-02-28T10:00:46;23.25;;;16.33;;
1376;SDS011;682;52.502;13.488;2024-02-28T10:03:13;22.50;;;16.25;;
1376;SDS011;682;52.502;13.488;2024-02-28T10:05:46;28.10;;;16.98;;
1376;SDS011;682;52.502;13.488;2024-02-28T10:08:13;21.88;;;16.15;;
1376;SDS011;682;52.502;13.488;2024-02-28T10:10:44;24.58;;;17.90;;
1376;SDS011;682;52.502;13.488;2024-02-28T10:13:13;22.48;;;15.68;;
1376;SDS011;682;52.502;13.488;2024-02-28T10:15:42;27.30;;;18.00;;
1376;SDS011;682;52.502;13.488;2024-02-28T10:18:09;22.65;;;15.65;;
1376;SDS011;682;52.502;13.488;2024-02-28T10:20:36;28.35;;;21.00;;
1376;SDS011;682;52.502;13.488;2024-02-28T10:23:05;24.67;;;18.27;;
1376;SDS011;682;52.502;13.488;2024-02-28T10:25:41;23.65;;;16.48;;
1376;SDS011;682;52.502;13.488;2024-02-28T10:28:09;23.90;;;17.38;;
1376;SDS011;682;52.502;13.488;2024-02-28T10:30:38;21.88;;;17.95;;
1376;SDS011;682;52.502;13.488;2024-02-28T10:33:10;25.35;;;17.70;;
1376;SDS011;682;52.502;13.488;2024-02-28T10:35:39;23.27;;;16.92;;
1376;SDS011;682;52.502;13.488;2024-02-28T10:38:06;21.25;;;15.40;;
1376;SDS011;682;52.502;13.488;2024-02-28T10:40:34;22.98;;;14.73;;
1376;SDS011;682;52.502;13.488;2024-02-28T10:43:02;17.15;;;12.32;;
1376;SDS011;682;52.502;13.488;2024-02-28T10:45:31;27.05;;;13.55;;
1376;SDS011;682;52.502;13.488;2024-02-28T10:47:58;28.60;;;15.70;;
1376;SDS011;682;52.502;13.488;2024-02-28T10:50:26;19.45;;;14.85;;
1376;SDS011;682;52.502;13.488;2024-02-28T10:52:53;26.13;;;15.82;;
1376;SDS011;682;52.502;13.488;2024-02-28T10:55:27;24.98;;;16.23;;
1376;SDS011;682;52.502;13.488;2024-02-28T10:58:01;21.48;;;15.27;;
1376;SDS011;682;52.502;13.488;2024-02-28T11:00:29;20.27;;;14.88;;
1376;SDS011;682;52.502;13.488;2024-02-28T11:02:58;21.05;;;14.75;;
1376;SDS011;682;52.502;13.488;2024-02-28T11:05:35;20.45;;;13.93;;
1376;SDS011;682;52.502;13.488;2024-02-28T11:08:04;21.67;;;15.75;;
1376;SDS011;682;52.502;13.488;2024-02-28T11:10:33;20.85;;;15.85;;
1376;SDS011;682;52.502;13.488;2024-02-28T11:13:00;26.58;;;17.60;;
1376;SDS011;682;52.502;13.488;2024-02-28T11:15:28;27.35;;;20.17;;
1376;SDS011;682;52.502;13.488;2024-02-28T11:17:55;20.63;;;16.40;;
1376;SDS011;682;52.502;13.488;2024-02-28T11:20:36;21.65;;;14.77;;
1376;SDS011;682;52.502;13.488;2024-02-28T11:23:08;20.75;;;15.35;;
1376;SDS011;682;52.502;13.488;2024-02-28T11:25:37;27.08;;;17.00;;
1376;SDS011;682;52.502;13.488;2024-02-28T11:28:04;20.02;;;14.70;;
1376;SDS011;682;52.502;13.488;2024-02-28T11:30:32;21.88;;;16.13;;
1376;SDS011;682;52.502;13.488;2024-02-28T11:32:59;29.92;;;20.30;;
1376;SDS011;682;52.502;13.488;2024-02-28T11:35:26;23.42;;;14.73;;
1376;SDS011;682;52.502;13.488;2024-02-28T11:37:53;26.60;;;18.20;;
1376;SDS011;682;52.502;13.488;2024-02-28T11:40:22;31.92;;;19.77;;
1376;SDS011;682;52.502;13.488;2024-02-28T11:42:52;27.45;;;18.80;;
1376;SDS011;682;52.502;13.488;2024-02-28T11:45:20;27.00;;;16.45;;
1376;SDS011;682;52.502;13.488;2024-02-28T11:47:47;20.10;;;13.85;;
1376;SDS011;682;52.502;13.488;2024-02-28T11:50:14;21.00;;;14.68;;
1376;SDS011;682;52.502;13.488;2024-02-28T11:52:44;22.90;;;17.58;;
1376;SDS011;682;52.502;13.488;2024-02-28T11:55:11;20.55;;;15.52;;
1376;SDS011;682;52.502;13.488;2024-02-28T11:57:38;18.52;;;15.77;;
1376;SDS011;682;52.502;13.488;2024-02-28T12:00:08;24.38;;;16.25;;
1376;SDS011;682;52.502;13.488;2024-02-28T12:02:38;21.63;;;16.83;;
1376;SDS011;682;52.502;13.488;2024-02-28T12:05:05;22.98;;;16.15;;
1376;SDS011;682;52.502;13.488;2024-02-28T12:07:34;24.92;;;16.52;;
1376;SDS011;682;52.502;13.488;2024-02-28T12:10:04;25.15;;;19.92;;
1376;SDS011;682;52.502;13.488;2024-02-28T12:12:34;19.85;;;16.17;;
1376;SDS011;682;52.502;13.488;2024-02-28T12:15:01;24.85;;;15.02;;
1376;SDS011;682;52.502;13.488;2024-02-28T12:17:33;17.93;;;14.37;;
1376;SDS011;682;52.502;13.488;2024-02-28T12:20:02;23.52;;;15.75;;
1376;SDS011;682;52.502;13.488;2024-02-28T12:22:31;22.63;;;16.17;;
1376;SDS011;682;52.502;13.488;2024-02-28T12:24:58;18.08;;;14.48;;
1376;SDS011;682;52.502;13.488;2024-02-28T12:27:29;19.75;;;15.27;;
1376;SDS011;682;52.502;13.488;2024-02-28T12:29:57;20.67;;;14.55;;
1376;SDS011;682;52.502;13.488;2024-02-28T12:32:24;20.13;;;14.80;;
1376;SDS011;682;52.502;13.488;2024-02-28T12:34:52;26.23;;;15.80;;
1376;SDS011;682;52.502;13.488;2024-02-28T12:37:20;16.65;;;13.73;;
1376;SDS011;682;52.502;13.488;2024-02-28T12:39:47;16.63;;;12.90;;
1376;SDS011;682;52.502;13.488;2024-02-28T12:42:14;21.48;;;13.98;;
1376;SDS011;682;52.502;13.488;2024-02-28T12:44:41;17.20;;;12.98;;
1376;SDS011;682;52.502;13.488;2024-02-28T12:47:10;21.87;;;13.30;;
1376;SDS011;682;52.502;13.488;2024-02-28T12:49:39;18.20;;;14.20;;
1376;SDS011;682;52.502;13.488;2024-02-28T12:52:09;20.48;;;12.30;;
1376;SDS011;682;52.502;13.488;2024-02-28T12:54:36;19.37;;;13.17;;
1376;SDS011;682;52.502;13.488;2024-02-28T12:57:04;15.50;;;13.33;;
1376;SDS011;682;52.502;13.488;2024-02-28T12:59:34;18.90;;;14.80;;
1376;SDS011;682;52.502;13.488;2024-02-28T13:02:00;16.95;;;12.80;;
1376;SDS011;682;52.502;13.488;2024-02-28T13:04:28;18.48;;;13.20;;
1376;SDS011;682;52.502;13.488;2024-02-28T13:06:55;13.02;;;11.65;;
1376;SDS011;682;52.502;13.488;2024-02-28T13:09:24;15.80;;;12.43;;
1376;SDS011;682;52.502;13.488;2024-02-28T13:11:51;22.20;;;13.20;;
1376;SDS011;682;52.502;13.488;2024-02-28T13:14:27;18.63;;;12.60;;
1376;SDS011;682;52.502;13.488;2024-02-28T13:16:54;31.30;;;13.63;;
1376;SDS011;682;52.502;13.488;2024-02-28T13:19:23;19.60;;;13.27;;
1376;SDS011;682;52.502;13.488;2024-02-28T13:21:50;21.97;;;13.53;;
1376;SDS011;682;52.502;13.488;2024-02-28T13:24:17;19.20;;;13.57;;
1376;SDS011;682;52.502;13.488;2024-02-28T13:26:45;19.03;;;14.07;;
1376;SDS011;682;52.502;13.488;2024-02-28T13:29:13;18.83;;;15.23;;
1376;SDS011;682;52.502;13.488;2024-02-28T13:31:41;19.27;;;15.90;;
1376;SDS011;682;52.502;13.488;2024-02-28T13:34:08;17.83;;;15.90;;
1376;SDS011;682;52.502;13.488;2024-02-28T13:36:35;17.80;;;15.40;;
1376;SDS011;682;52.502;13.488;2024-02-28T13:39:09;17.90;;;15.23;;
1376;SDS011;682;52.502;13.488;2024-02-28T13:41:39;19.70;;;15.47;;
1376;SDS011;682;52.502;13.488;2024-02-28T13:44:07;18.10;;;14.73;;
1376;SDS011;682;52.502;13.488;2024-02-28T13:46:35;16.10;;;13.43;;
1376;SDS011;682;52.502;13.488;2024-02-28T13:49:04;17.60;;;13.47;;
1376;SDS011;682;52.502;13.488;2024-02-28T13:51:31;17.90;;;15.10;;
1376;SDS011;682;52.502;13.488;2024-02-28T13:53:58;19.40;;;16.70;;
1376;SDS011;682;52.502;13.488;2024-02-28T13:56:25;16.53;;;14.80;;
1376;SDS011;682;52.502;13.488;2024-02-28T13:58:52;16.83;;;15.13;;
1376;SDS011;682;52.502;13.488;2024-02-28T14:01:20;16.83;;;14.80;;
1376;SDS011;682;52.502;13.488;2024-02-28T14:03:48;27.63;;;19.70;;
1376;SDS011;682;52.502;13.488;2024-02-28T14:06:15;19.47;;;15.67;;
1376;SDS011;682;52.502;13.488;2024-02-28T14:08:42;20.77;;;14.57;;
1376;SDS011;682;52.502;13.488;2024-02-28T14:11:11;17.17;;;13.23;;
1376;SDS011;682;52.502;13.488;2024-02-28T14:13:41;21.03;;;14.63;;
1376;SDS011;682;52.502;13.488;2024-02-28T14:16:08;25.97;;;16.07;;
1376;SDS011;682;52.502;13.488;2024-02-28T14:18:37;18.33;;;13.73;;
1376;SDS011;682;52.502;13.488;2024-02-28T14:21:04;18.30;;;13.90;;
1376;SDS011;682;52.502;13.488;2024-02-28T14:23:32;38.23;;;34.23;;
1376;SDS011;682;52.502;13.488;2024-02-28T14:25:59;19.70;;;13.90;;
1376;SDS011;682;52.502;13.488;2024-02-28T14:28:27;15.00;;;12.70;;
1376;SDS011;682;52.502;13.488;2024-02-28T14:30:54;12.87;;;11.30;;
1376;SDS011;682;52.502;13.488;2024-02-28T14:33:21;14.17;;;12.30;;
1376;SDS011;682;52.502;13.488;2024-02-28T14:35:50;22.20;;;13.47;;
1376;SDS011;682;52.502;13.488;2024-02-28T14:38:18;17.53;;;11.67;;
1376;SDS011;682;52.502;13.488;2024-02-28T14:40:45;15.50;;;12.30;;
1376;SDS011;682;52.502;13.488;2024-02-28T14:43:12;17.77;;;13.60;;
1376;SDS011;682;52.502;13.488;2024-02-28T14:45:41;19.27;;;11.83;;
1376;SDS011;682;52.502;13.488;2024-02-28T14:48:08;15.00;;;11.90;;
1376;SDS011;682;52.502;13.488;2024-02-28T14:50:34;17.73;;;11.80;;
1376;SDS011;682;52.502;13.488;2024-02-28T14:53:03;17.13;;;13.00;;
1376;SDS011;682;52.502;13.488;2024-02-28T14:55:30;14.67;;;11.33;;